createdAt,value
2019-01-18T12:03:17.570Z,16.27
2019-01-18T12:05:44.870Z,14.60
2019-01-18T12:08:12.158Z,5.33
2019-01-18T12:10:39.476Z,12.07
2019-01-18T12:13:06.788Z,34.23
2019-01-18T12:15:34.082Z,26.68
2019-01-18T12:18:01.406Z,14.35
2019-01-18T12:20:29.795Z,7.12
2019-01-18T12:22:57.095Z,44.90
2019-01-18T12:25:24.409Z,16.15
2019-01-18T12:27:51.787Z,40.40
2019-01-18T12:30:23.925Z,5.75
2019-01-18T12:32:51.311Z,3.75
2019-01-18T12:35:18.597Z,29.27
2019-01-18T12:37:45.925Z,10.38
2019-01-18T12:40:13.226Z,43.60
2019-01-18T12:42:40.500Z,6.92
2019-01-18T12:45:15.064Z,27.98
2019-01-18T12:47:42.358Z,4.08
2019-01-18T12:50:11.312Z,20.37
2019-01-18T12:52:38.598Z,4.83
2019-01-18T12:55:06.679Z,29.87
2019-01-18T12:57:34.001Z,38.20
2019-01-18T13:00:01.280Z,9.50
2019-01-18T13:02:28.602Z,9.93
2019-01-18T13:04:55.902Z,16.42
2019-01-18T13:07:23.185Z,8.85
2019-01-18T13:09:50.493Z,6.00
2019-01-18T13:12:17.798Z,5.92
2019-01-18T13:14:45.109Z,5.80
2019-01-18T13:17:12.407Z,6.47
2019-01-18T13:19:39.697Z,5.60
2019-01-18T13:22:07.018Z,5.55
2019-01-18T13:24:34.349Z,4.90
2019-01-18T13:27:01.652Z,3.35
2019-01-18T13:29:28.929Z,4.03
2019-01-18T13:31:56.255Z,2.80
2019-01-18T13:34:23.639Z,2.75
2019-01-18T13:36:50.925Z,3.25
2019-01-18T13:39:18.218Z,2.60
2019-01-18T13:41:45.533Z,2.67
2019-01-18T13:44:12.827Z,3.72
2019-01-18T13:46:40.140Z,3.52
2019-01-18T13:49:07.427Z,3.60
2019-01-18T13:51:34.752Z,4.30
2019-01-18T13:54:02.043Z,4.37
2019-01-18T13:56:29.334Z,4.75
2019-01-18T13:58:56.685Z,4.72
2019-01-18T14:01:23.973Z,5.00
2019-01-18T14:03:51.258Z,5.33
2019-01-18T14:06:18.584Z,6.20
2019-01-18T14:08:45.886Z,5.10
2019-01-18T14:11:13.167Z,6.53
2019-01-18T14:13:40.750Z,5.50
2019-01-18T14:16:08.047Z,6.47
2019-01-18T14:18:35.339Z,6.08
2019-01-18T14:21:02.637Z,6.30
2019-01-18T14:23:29.929Z,6.25
2019-01-18T14:25:57.266Z,6.60
2019-01-18T14:28:24.549Z,6.55
2019-01-18T14:30:51.848Z,6.72
2019-01-18T14:33:19.157Z,6.72
2019-01-18T14:35:46.461Z,6.60
2019-01-18T14:38:13.781Z,6.60
2019-01-18T14:40:41.072Z,7.15
2019-01-18T14:43:08.374Z,6.47
2019-01-18T14:45:42.938Z,6.60
2019-01-18T14:48:10.223Z,6.47
2019-01-18T14:50:37.572Z,6.83
2019-01-18T14:53:04.881Z,6.53
2019-01-18T14:55:32.204Z,7.30
2019-01-18T14:57:59.503Z,6.80
2019-01-18T15:00:29.578Z,6.80
2019-01-18T15:03:02.257Z,7.60
2019-01-18T15:05:26.026Z,6.60
2019-01-18T15:07:53.309Z,7.58
2019-01-18T15:10:21.577Z,7.30
2019-01-18T15:12:50.067Z,7.33
2019-01-18T15:15:17.345Z,7.12
2019-01-18T15:17:45.497Z,7.30
2019-01-18T15:20:14.447Z,7.40
2019-01-18T15:22:41.741Z,8.20
2019-01-18T15:25:09.050Z,8.15
2019-01-18T15:27:36.332Z,8.35
2019-01-18T15:30:06.915Z,7.90
2019-01-18T15:32:34.384Z,8.50
2019-01-18T15:35:01.674Z,8.60
2019-01-18T15:37:28.962Z,9.38
2019-01-18T15:39:56.295Z,9.33
2019-01-18T15:42:23.586Z,8.70
2019-01-18T15:44:50.873Z,8.60
2019-01-18T15:47:18.206Z,8.70
2019-01-18T15:49:45.493Z,9.58
2019-01-18T15:52:12.796Z,9.18
2019-01-18T15:54:40.123Z,10.38
2019-01-18T15:57:07.434Z,10.08
2019-01-18T15:59:34.749Z,10.20
2019-01-18T16:02:02.050Z,10.55
2019-01-18T16:04:29.350Z,11.28
2019-01-18T16:06:56.676Z,12.40
2019-01-18T16:09:23.989Z,10.80
2019-01-18T16:11:51.289Z,10.85
2019-01-18T16:14:18.598Z,11.35
2019-01-18T16:16:46.087Z,11.50
2019-01-18T16:19:13.375Z,11.20
2019-01-18T16:21:40.670Z,23.32
2019-01-18T16:24:07.996Z,31.95
2019-01-18T16:26:35.324Z,34.65
2019-01-18T16:29:02.700Z,32.90
2019-01-18T16:31:30.007Z,28.23
2019-01-18T16:33:58.083Z,37.85
2019-01-18T16:36:25.570Z,34.90
2019-01-18T16:38:52.890Z,32.83
2019-01-18T16:41:20.203Z,21.05
2019-01-18T16:43:47.520Z,16.17
2019-01-18T16:46:14.811Z,15.55
2019-01-18T16:48:42.156Z,15.48
2019-01-18T16:51:10.331Z,15.15
2019-01-18T16:53:38.643Z,12.80
2019-01-18T16:56:05.969Z,13.03
2019-01-18T16:58:33.282Z,13.25
2019-01-18T17:01:01.348Z,13.35
2019-01-18T17:03:30.569Z,11.30
2019-01-18T17:05:57.659Z,13.70
2019-01-18T17:08:24.983Z,16.65
2019-01-18T17:10:52.306Z,12.78
2019-01-18T17:13:19.770Z,12.47
2019-01-18T17:15:47.100Z,13.40
2019-01-18T17:18:14.394Z,14.40
2019-01-18T17:20:43.265Z,14.33
2019-01-18T17:23:10.617Z,11.85
2019-01-18T17:25:37.950Z,11.70
2019-01-18T17:28:05.273Z,12.70
2019-01-18T17:30:32.560Z,12.50
2019-01-18T17:32:59.881Z,10.80
2019-01-18T17:35:31.733Z,10.90
2019-01-18T17:38:17.182Z,12.60
2019-01-18T17:40:48.958Z,14.65
2019-01-18T17:43:17.885Z,17.02
2019-01-18T17:45:49.766Z,17.50
2019-01-18T17:48:21.763Z,20.23
2019-01-18T17:50:53.674Z,19.65
2019-01-18T17:53:22.602Z,16.62
2019-01-18T17:55:54.555Z,15.32
2019-01-18T17:58:23.508Z,17.75
2019-01-18T18:01:07.650Z,19.37
2019-01-18T18:03:43.668Z,20.92
2019-01-18T18:06:21.662Z,22.65
2019-01-18T18:08:50.586Z,22.30
2019-01-18T18:11:37.854Z,22.70
2019-01-18T18:14:11.395Z,23.10
2019-01-18T18:16:40.427Z,23.60
2019-01-18T18:19:15.081Z,18.77
2019-01-18T18:21:44.006Z,16.00
2019-01-18T18:24:16.079Z,16.17
2019-01-18T18:26:45.023Z,16.95
2019-01-18T18:29:16.882Z,14.47
2019-01-18T18:31:54.971Z,14.25
2019-01-18T18:34:29.925Z,13.35
2019-01-18T18:37:02.012Z,13.58
2019-01-18T18:39:30.937Z,14.45
2019-01-18T18:42:08.955Z,14.30
2019-01-18T18:44:49.731Z,14.33
2019-01-18T18:47:18.676Z,14.10
2019-01-18T18:49:47.632Z,14.23
2019-01-18T18:52:25.508Z,15.13
2019-01-18T18:54:54.450Z,15.10
2019-01-18T18:57:26.137Z,15.72
2019-01-18T18:59:55.131Z,15.38
2019-01-18T19:02:24.068Z,17.60
2019-01-18T19:04:56.028Z,15.80
2019-01-18T19:07:33.919Z,17.23
2019-01-18T19:10:02.870Z,17.02
2019-01-18T19:12:31.805Z,20.23
2019-01-18T19:15:00.722Z,20.70
2019-01-18T19:17:29.678Z,21.97
2019-01-18T19:20:01.660Z,21.48
2019-01-18T19:22:30.589Z,20.27
2019-01-18T19:25:08.532Z,18.75
2019-01-18T19:27:37.462Z,20.85
2019-01-18T19:30:12.704Z,20.92
2019-01-18T19:32:41.626Z,21.50
2019-01-18T19:35:16.276Z,23.40
2019-01-18T19:38:01.735Z,21.75
2019-01-18T19:40:33.449Z,20.25
2019-01-18T19:43:14.685Z,20.92
2019-01-18T19:45:52.794Z,19.85
2019-01-18T19:48:24.517Z,17.40
2019-01-18T19:50:53.458Z,17.05
2019-01-18T19:53:22.406Z,16.15
2019-01-18T19:56:07.783Z,14.65
2019-01-18T19:58:36.735Z,16.30
2019-01-18T20:01:20.972Z,16.07
2019-01-18T20:03:58.983Z,18.15
2019-01-18T20:06:36.802Z,16.40
2019-01-18T20:09:14.980Z,16.45
2019-01-18T20:11:49.852Z,15.75
2019-01-18T20:14:21.752Z,16.85
2019-01-18T20:16:59.839Z,17.52
2019-01-18T20:19:46.839Z,17.00
2019-01-18T20:22:18.225Z,17.35
2019-01-18T20:25:03.974Z,17.05
2019-01-18T20:27:32.910Z,17.90
2019-01-18T20:30:01.831Z,17.70
2019-01-18T20:32:33.703Z,18.67
2019-01-18T20:35:02.631Z,19.70
2019-01-18T20:37:31.630Z,19.70
2019-01-18T20:40:00.669Z,20.35
2019-01-18T20:42:29.592Z,19.65
2019-01-18T20:45:10.522Z,18.85
2019-01-18T20:47:39.479Z,20.50
2019-01-18T20:50:14.194Z,20.88
2019-01-18T20:52:43.112Z,21.20
2019-01-18T20:55:12.036Z,22.25
2019-01-18T20:57:40.986Z,22.10
2019-01-18T21:00:26.569Z,20.72
2019-01-18T21:02:58.438Z,21.70
2019-01-18T21:05:27.360Z,21.82
2019-01-18T21:07:56.300Z,22.62
2019-01-18T21:10:25.253Z,21.62
2019-01-18T21:13:09.330Z,23.18
2019-01-18T21:15:38.260Z,25.52
2019-01-18T21:18:07.191Z,24.80
2019-01-18T21:20:45.195Z,24.90
2019-01-18T21:23:19.827Z,24.60
2019-01-18T21:25:51.441Z,25.00
2019-01-18T21:28:29.334Z,26.23
2019-01-18T21:31:01.351Z,24.85
2019-01-18T21:33:36.222Z,23.55
2019-01-18T21:36:08.099Z,24.77
2019-01-18T21:38:43.242Z,25.20
2019-01-18T21:41:13.507Z,25.08
2019-01-18T21:43:59.133Z,26.90
2019-01-18T21:46:44.838Z,29.57
2019-01-18T21:49:25.853Z,28.12
2019-01-18T21:52:09.847Z,26.60
2019-01-18T21:54:38.788Z,27.52
2019-01-18T21:57:24.463Z,26.75
2019-01-18T22:00:08.363Z,27.60
2019-01-18T22:02:46.292Z,26.77
2019-01-18T22:05:24.231Z,27.20
2019-01-18T22:07:53.214Z,25.52
2019-01-18T22:10:22.124Z,25.60
2019-01-18T22:13:07.942Z,25.35
2019-01-18T22:15:36.902Z,23.35
2019-01-18T22:18:05.838Z,23.90
2019-01-18T22:20:37.706Z,23.55
2019-01-18T22:23:06.666Z,22.50
2019-01-18T22:25:41.549Z,23.95
2019-01-18T22:28:16.671Z,23.73
2019-01-18T22:30:51.779Z,23.40
2019-01-18T22:33:20.732Z,23.92
2019-01-18T22:35:52.622Z,23.52
2019-01-18T22:38:21.558Z,24.35
2019-01-18T22:40:53.183Z,22.80
2019-01-18T22:43:31.156Z,23.85
2019-01-18T22:46:00.159Z,25.40
2019-01-18T22:48:34.934Z,25.95
2019-01-18T22:51:03.925Z,26.17
2019-01-18T22:53:49.310Z,25.88
2019-01-18T22:56:30.605Z,25.37
2019-01-18T22:58:59.529Z,25.80
2019-01-18T23:01:37.658Z,24.72
2019-01-18T23:04:09.518Z,25.60
2019-01-18T23:06:47.343Z,25.10
2019-01-18T23:09:34.410Z,26.30
2019-01-18T23:12:15.501Z,26.55
2019-01-18T23:14:48.380Z,27.48
2019-01-18T23:17:17.450Z,27.70
2019-01-18T23:19:58.695Z,28.62
2019-01-18T23:22:27.670Z,28.35
2019-01-18T23:25:11.828Z,27.42
2019-01-18T23:27:57.535Z,29.30
2019-01-18T23:30:26.496Z,27.85
2019-01-18T23:32:55.429Z,27.90
2019-01-18T23:35:24.394Z,26.23
2019-01-18T23:37:56.042Z,27.75
2019-01-18T23:40:34.047Z,26.68
2019-01-18T23:43:05.921Z,26.17
2019-01-18T23:45:34.841Z,27.20
2019-01-18T23:48:19.109Z,26.40
2019-01-18T23:51:04.545Z,27.17
2019-01-18T23:53:48.515Z,26.97
2019-01-18T23:56:32.532Z,27.02
2019-01-18T23:59:01.491Z,29.05
